createdAt,value
2023-02-13T00:13:10.262Z,2.20
2023-02-13T00:18:05.438Z,0.10
2023-02-13T00:23:00.645Z,0.10
2023-02-13T00:30:23.493Z,-0.10
2023-02-13T00:35:19.152Z,-0.10
2023-02-13T00:40:14.010Z,-0.10
2023-02-13T00:45:09.213Z,0.00
2023-02-13T00:59:53.953Z,-0.40
2023-02-13T01:09:44.645Z,-0.60
2023-02-13T01:12:11.943Z,-0.60
2023-02-13T01:29:26.306Z,0.10
2023-02-13T01:34:20.891Z,0.00
2023-02-13T01:36:47.872Z,0.00
2023-02-13T01:44:57.156Z,0.00
2023-02-13T01:47:45.257Z,-0.30
2023-02-13T01:50:37.286Z,-0.40
2023-02-13T01:53:59.003Z,-0.50
2023-02-13T01:56:44.078Z,-0.60
2023-02-13T01:59:20.355Z,-0.50
2023-02-13T02:01:48.163Z,-0.50
2023-02-13T02:04:33.922Z,-0.60
2023-02-13T02:07:18.646Z,-0.60
2023-02-13T02:09:49.261Z,-0.60
2023-02-13T02:13:00.606Z,-0.70
2023-02-13T02:15:29.718Z,-0.70
2023-02-13T02:21:09.287Z,-0.80
2023-02-13T02:24:03.288Z,-0.90
2023-02-13T02:27:22.422Z,-0.90
2023-02-13T02:30:33.003Z,-0.90
2023-02-13T02:33:27.699Z,-1.00
2023-02-13T02:39:18.310Z,-1.10
2023-02-13T02:42:15.222Z,-1.10
2023-02-13T02:45:10.300Z,-1.20
2023-02-13T02:48:21.823Z,-1.20
2023-02-13T02:51:19.463Z,-1.30
2023-02-13T02:54:33.490Z,-1.40
2023-02-13T02:57:14.179Z,-1.30
2023-02-13T03:00:25.099Z,-1.30
2023-02-13T03:03:12.241Z,-1.30
2023-02-13T03:06:03.667Z,-1.30
2023-02-13T03:11:35.662Z,-1.40
2023-02-13T03:14:06.279Z,-1.50
2023-02-13T03:16:52.208Z,-1.40
2023-02-13T03:20:20.044Z,-1.50
2023-02-13T03:23:17.810Z,-1.50
2023-02-13T03:26:57.955Z,-1.50
2023-02-13T03:30:11.301Z,-1.50
2023-02-13T03:33:16.983Z,-1.50
2023-02-13T03:36:34.981Z,-1.50
2023-02-13T03:39:38.337Z,-1.50
2023-02-13T03:42:23.487Z,-1.50
2023-02-13T03:45:18.920Z,-0.70
2023-02-13T03:47:49.645Z,-1.40
2023-02-13T03:50:18.447Z,-1.40
2023-02-13T03:53:10.382Z,-1.40
2023-02-13T03:56:07.445Z,-1.40
2023-02-13T03:59:06.890Z,-1.50
2023-02-13T04:01:37.152Z,-1.50
2023-02-13T04:04:39.432Z,-1.50
2023-02-13T04:07:29.126Z,-1.50
2023-02-13T04:10:01.817Z,-1.60
2023-02-13T04:13:15.624Z,-1.60
2023-02-13T04:15:50.644Z,-1.70
2023-02-13T04:18:29.833Z,-1.70
2023-02-13T04:20:57.192Z,-1.70
2023-02-13T04:25:55.877Z,-1.80
2023-02-13T04:38:13.115Z,-1.80
2023-02-13T04:48:02.772Z,-1.70
2023-02-13T04:52:58.877Z,-1.70
2023-02-13T04:55:28.450Z,-1.80
2023-02-13T04:57:56.913Z,-1.90
2023-02-13T05:00:27.568Z,-2.00
2023-02-13T05:05:27.696Z,-2.10
2023-02-13T05:07:54.732Z,-2.20
2023-02-13T05:17:46.488Z,-2.20
2023-02-13T05:20:14.808Z,-2.20
2023-02-13T05:23:10.204Z,-2.20
2023-02-13T05:25:41.100Z,-2.00
2023-02-13T05:28:41.106Z,-2.00
2023-02-13T05:31:08.203Z,-2.00
2023-02-13T05:33:35.204Z,-2.00
2023-02-13T05:41:00.462Z,-2.20
2023-02-13T05:43:30.093Z,-2.20
2023-02-13T05:46:09.779Z,-2.10
2023-02-13T05:48:37.637Z,-2.20
2023-02-13T05:51:06.021Z,-2.10
2023-02-13T05:53:36.375Z,-2.20
2023-02-13T05:56:06.430Z,-2.20
2023-02-13T05:58:34.302Z,-2.20
2023-02-13T06:01:01.732Z,-2.30
2023-02-13T06:03:31.443Z,-2.40
2023-02-13T06:05:59.859Z,-2.40
2023-02-13T06:13:21.812Z,-2.40
2023-02-13T06:18:18.028Z,-2.30
2023-02-13T06:25:43.315Z,-2.30
2023-02-13T06:30:37.899Z,-2.20
2023-02-13T06:37:59.709Z,-2.20
2023-02-13T06:50:18.388Z,-2.20
2023-02-13T06:52:50.756Z,-2.30
2023-02-13T07:00:16.860Z,-2.30
2023-02-13T07:02:46.559Z,-2.10
2023-02-13T07:05:14.804Z,-2.10
2023-02-13T07:07:43.240Z,-2.00
2023-02-13T07:10:13.801Z,-2.00
2023-02-13T07:20:06.471Z,-1.80
2023-02-13T07:25:02.013Z,-1.60
2023-02-13T07:29:57.818Z,-1.50
2023-02-13T07:32:26.076Z,-1.30
2023-02-13T07:37:31.475Z,-1.10
2023-02-13T07:52:16.132Z,-0.30
2023-02-13T08:02:15.061Z,0.00
2023-02-13T08:04:46.314Z,0.10
2023-02-13T08:07:15.964Z,0.20
2023-02-13T08:10:04.349Z,0.30
2023-02-13T08:12:35.878Z,0.40
2023-02-13T08:15:04.577Z,0.50
2023-02-13T08:22:26.586Z,1.10
2023-02-13T08:47:11.192Z,2.30
2023-02-13T08:49:38.748Z,2.40
2023-02-13T08:54:36.087Z,2.90
2023-02-13T09:06:27.491Z,3.60
2023-02-13T09:11:23.456Z,4.10
2023-02-13T09:13:53.762Z,4.30
2023-02-13T09:18:51.441Z,4.80
2023-02-13T09:21:23.527Z,5.00
2023-02-13T09:23:51.515Z,5.10
2023-02-13T09:26:20.879Z,5.50
2023-02-13T09:28:48.310Z,5.70
2023-02-13T09:31:20.954Z,6.10
2023-02-13T09:33:50.297Z,6.20
2023-02-13T09:36:23.883Z,6.20
2023-02-13T09:38:57.225Z,6.30
2023-02-13T09:41:32.816Z,6.30
2023-02-13T09:44:33.903Z,6.40
2023-02-13T09:47:39.733Z,6.50
2023-02-13T09:50:23.009Z,6.80
2023-02-13T09:52:54.284Z,7.00
2023-02-13T09:56:07.222Z,7.10
2023-02-13T09:58:45.483Z,7.20
2023-02-13T10:01:46.308Z,7.50
2023-02-13T10:05:20.163Z,7.90
2023-02-13T10:08:06.769Z,8.60
2023-02-13T10:11:30.193Z,8.60
2023-02-13T10:14:17.338Z,9.40
2023-02-13T10:17:14.828Z,9.50
2023-02-13T10:22:52.285Z,10.50
2023-02-13T10:25:30.405Z,10.50
2023-02-13T10:28:09.533Z,10.70
2023-02-13T10:30:51.410Z,11.60
2023-02-13T10:33:31.612Z,12.00
2023-02-13T10:36:28.256Z,11.70
2023-02-13T10:39:06.716Z,11.80
2023-02-13T10:41:48.640Z,11.80
2023-02-13T10:45:11.501Z,12.30
2023-02-13T10:48:37.704Z,11.50
2023-02-13T10:51:22.926Z,11.80
2023-02-13T10:53:58.264Z,12.40
2023-02-13T10:57:01.311Z,12.50
2023-02-13T11:00:19.238Z,12.60
2023-02-13T11:02:46.492Z,12.30
2023-02-13T11:05:24.956Z,12.60
2023-02-13T11:07:52.071Z,12.70
2023-02-13T11:10:24.264Z,12.30
2023-02-13T11:12:53.066Z,12.30
2023-02-13T11:15:32.824Z,11.20
2023-02-13T11:18:40.918Z,11.20
2023-02-13T11:21:35.140Z,10.10
2023-02-13T11:26:37.100Z,10.30
2023-02-13T11:29:31.657Z,9.80
2023-02-13T11:32:19.715Z,9.50
2023-02-13T11:34:50.566Z,9.50
2023-02-13T11:37:31.641Z,9.70
2023-02-13T11:40:29.481Z,10.30
2023-02-13T11:45:26.014Z,10.80
2023-02-13T11:47:55.990Z,9.90
2023-02-13T11:53:15.538Z,8.50
2023-02-13T11:58:16.492Z,8.80
2023-02-13T12:00:43.910Z,8.40
2023-02-13T12:03:41.422Z,8.60
2023-02-13T12:06:15.859Z,8.70
2023-02-13T12:08:48.956Z,8.90
2023-02-13T12:11:28.893Z,9.00
2023-02-13T12:13:57.199Z,9.30
2023-02-13T12:16:50.384Z,9.50
2023-02-13T12:19:39.486Z,9.30
2023-02-13T12:22:42.738Z,8.90
2023-02-13T12:25:49.040Z,10.20
2023-02-13T12:28:33.928Z,12.40
2023-02-13T12:31:41.610Z,12.30
2023-02-13T12:35:21.171Z,11.60
2023-02-13T12:38:12.493Z,11.80
2023-02-13T12:41:24.342Z,11.40
2023-02-13T12:44:31.604Z,10.60
2023-02-13T12:47:31.773Z,10.60
2023-02-13T12:50:43.656Z,10.60
2023-02-13T12:53:42.789Z,10.80
2023-02-13T12:56:48.469Z,11.00
2023-02-13T12:59:55.002Z,11.20
2023-02-13T13:03:15.929Z,10.50
2023-02-13T13:06:29.377Z,10.90
2023-02-13T13:09:42.451Z,11.20
2023-02-13T13:12:59.935Z,11.90
2023-02-13T13:16:07.650Z,12.10
2023-02-13T13:19:20.920Z,11.00
2023-02-13T13:22:13.191Z,11.30
2023-02-13T13:25:30.084Z,11.40
2023-02-13T13:28:09.160Z,11.50
2023-02-13T13:30:41.836Z,11.70
2023-02-13T13:33:22.921Z,11.50
2023-02-13T13:36:41.900Z,11.80
2023-02-13T13:39:43.174Z,11.10
2023-02-13T13:42:48.774Z,9.80
2023-02-13T13:46:13.658Z,10.40
2023-02-13T13:49:14.241Z,11.10
2023-02-13T13:51:41.517Z,10.70
2023-02-13T13:54:17.460Z,10.50
2023-02-13T13:56:53.527Z,11.00
2023-02-13T13:59:53.698Z,11.00
2023-02-13T14:02:20.735Z,11.10
2023-02-13T14:05:20.231Z,11.40
2023-02-13T14:08:04.078Z,11.20
2023-02-13T14:10:31.002Z,10.70
2023-02-13T14:12:57.813Z,11.10
2023-02-13T14:15:42.299Z,10.70
2023-02-13T14:18:15.378Z,10.70
2023-02-13T14:23:42.677Z,10.60
2023-02-13T14:26:15.808Z,10.50
2023-02-13T14:29:11.842Z,10.00
2023-02-13T14:31:58.932Z,9.50
2023-02-13T14:34:35.434Z,10.00
2023-02-13T14:37:29.964Z,10.10
2023-02-13T14:40:17.449Z,10.20
2023-02-13T14:43:32.331Z,10.20
2023-02-13T14:46:29.910Z,10.30
2023-02-13T14:49:21.274Z,10.10
2023-02-13T14:51:58.055Z,10.30
2023-02-13T14:54:39.332Z,9.90
2023-02-13T14:57:33.028Z,10.10
2023-02-13T15:00:28.679Z,9.80
2023-02-13T15:03:05.138Z,9.80
2023-02-13T15:05:35.859Z,9.90
2023-02-13T15:08:15.585Z,9.90
2023-02-13T15:10:57.709Z,9.80
2023-02-13T15:13:31.258Z,9.50
2023-02-13T15:16:10.229Z,9.70
2023-02-13T15:18:46.633Z,9.90
2023-02-13T15:21:25.637Z,9.90
2023-02-13T15:23:55.606Z,9.20
2023-02-13T15:26:28.469Z,9.10
2023-02-13T15:29:25.951Z,9.10
2023-02-13T15:39:31.223Z,8.20
2023-02-13T15:42:02.453Z,7.90
2023-02-13T15:44:38.417Z,8.00
2023-02-13T15:47:36.919Z,8.20
2023-02-13T15:50:04.318Z,7.80
2023-02-13T15:52:36.865Z,7.00
2023-02-13T15:55:04.921Z,6.30
2023-02-13T15:57:32.382Z,6.00
2023-02-13T16:00:03.001Z,5.70
2023-02-13T16:02:47.832Z,5.50
2023-02-13T16:05:19.959Z,5.30
2023-02-13T16:08:01.225Z,5.10
2023-02-13T16:10:35.511Z,5.00
2023-02-13T16:13:16.618Z,4.70
2023-02-13T16:15:44.239Z,4.60
2023-02-13T16:18:21.413Z,4.40
2023-02-13T16:20:56.435Z,4.30
2023-02-13T16:28:27.226Z,3.90
2023-02-13T16:31:02.366Z,3.80
2023-02-13T16:33:38.115Z,5.30
2023-02-13T16:36:11.222Z,3.70
2023-02-13T16:38:43.524Z,3.70
2023-02-13T16:41:19.598Z,3.60
2023-02-13T16:43:53.788Z,3.60
2023-02-13T16:46:42.326Z,3.50
2023-02-13T16:49:09.311Z,3.30
2023-02-13T16:52:11.313Z,3.20
2023-02-13T16:54:48.821Z,3.00
2023-02-13T16:57:17.667Z,3.00
2023-02-13T16:59:47.374Z,2.90
2023-02-13T17:02:21.449Z,2.80
2023-02-13T17:05:09.708Z,2.60
2023-02-13T17:07:46.716Z,2.40
2023-02-13T17:10:36.829Z,2.30
2023-02-13T17:13:11.445Z,2.00
2023-02-13T17:15:43.996Z,1.80
2023-02-13T17:20:44.318Z,1.50
2023-02-13T17:23:24.605Z,1.30
2023-02-13T17:25:53.837Z,1.20
2023-02-13T17:28:29.058Z,1.10
2023-02-13T17:30:59.733Z,1.00
2023-02-13T17:33:31.564Z,0.90
2023-02-13T17:35:58.585Z,0.90
2023-02-13T17:38:25.716Z,0.90
2023-02-13T17:43:20.918Z,0.70
2023-02-13T17:45:49.547Z,0.50
2023-02-13T17:48:17.416Z,0.40
2023-02-13T17:50:44.643Z,0.30
2023-02-13T17:53:32.059Z,0.20
2023-02-13T17:55:59.201Z,0.20
2023-02-13T18:03:22.232Z,0.70
2023-02-13T18:05:49.634Z,0.70
2023-02-13T18:08:17.346Z,0.60
2023-02-13T18:10:44.363Z,0.50
2023-02-13T18:15:45.488Z,0.30
2023-02-13T18:18:16.277Z,0.60
2023-02-13T18:20:44.476Z,0.60
2023-02-13T18:23:11.752Z,0.50
2023-02-13T18:25:38.898Z,0.40
2023-02-13T18:28:05.970Z,0.30
2023-02-13T18:35:33.232Z,0.00
2023-02-13T18:38:00.241Z,-0.10
2023-02-13T18:45:22.248Z,-0.30
2023-02-13T18:50:17.250Z,-0.30
2023-02-13T18:52:44.293Z,-0.30
2023-02-13T18:57:43.180Z,-0.30
2023-02-13T19:00:11.582Z,-0.40
2023-02-13T19:02:38.573Z,-0.50
2023-02-13T19:05:06.290Z,-0.50
2023-02-13T19:10:00.868Z,-0.50
2023-02-13T19:12:27.947Z,-0.50
2023-02-13T19:14:55.264Z,-0.50
2023-02-13T19:17:23.297Z,-0.60
2023-02-13T19:19:50.498Z,-0.60
2023-02-13T19:29:40.421Z,-0.90
2023-02-13T19:32:07.563Z,-1.00
2023-02-13T19:34:35.041Z,-1.00
2023-02-13T19:39:29.814Z,-1.10
2023-02-13T19:41:57.043Z,-0.90
2023-02-13T19:44:24.228Z,-0.80
2023-02-13T19:51:49.173Z,-0.70
2023-02-13T19:59:13.375Z,-0.30
2023-02-13T20:01:42.730Z,-0.40
2023-02-13T20:04:11.239Z,-0.70
2023-02-13T20:06:39.116Z,-0.70
2023-02-13T20:09:11.942Z,-0.40
2023-02-13T20:11:41.664Z,0.00
2023-02-13T20:14:14.597Z,0.10
2023-02-13T20:16:42.836Z,0.10
2023-02-13T20:19:12.072Z,0.20
2023-02-13T20:24:10.691Z,0.20
2023-02-13T20:26:39.620Z,0.20
2023-02-13T20:29:07.637Z,0.10
2023-02-13T20:31:35.996Z,0.10
2023-02-13T20:34:06.044Z,0.00
2023-02-13T20:36:34.258Z,0.00
2023-02-13T20:39:06.207Z,-0.10
2023-02-13T20:41:36.886Z,-0.10
2023-02-13T20:44:10.078Z,0.00
2023-02-13T20:46:40.209Z,0.00
2023-02-13T20:54:04.245Z,0.20
2023-02-13T20:56:31.552Z,0.30
2023-02-13T20:59:00.550Z,0.30
2023-02-13T21:01:35.517Z,0.30
2023-02-13T21:04:02.965Z,0.20
2023-02-13T21:06:35.450Z,0.30
2023-02-13T21:09:05.199Z,0.40
2023-02-13T21:14:02.726Z,0.60
2023-02-13T21:16:35.889Z,0.60
2023-02-13T21:19:09.343Z,0.60
2023-02-13T21:21:38.293Z,0.70
2023-02-13T21:24:10.973Z,0.70
2023-02-13T21:29:07.563Z,0.80
2023-02-13T21:31:43.981Z,0.80
2023-02-13T21:34:13.484Z,0.90
2023-02-13T21:36:40.622Z,0.90
2023-02-13T21:39:10.932Z,1.10
2023-02-13T21:41:42.619Z,1.10
2023-02-13T21:44:14.404Z,1.20
2023-02-13T21:46:44.008Z,1.20
2023-02-13T21:49:18.816Z,1.30
2023-02-13T21:51:47.632Z,1.30
2023-02-13T21:56:43.775Z,1.40
2023-02-13T21:59:18.350Z,1.40
2023-02-13T22:01:50.147Z,1.50
2023-02-13T22:06:50.938Z,1.40
2023-02-13T22:09:21.014Z,1.50
2023-02-13T22:14:19.250Z,1.50
2023-02-13T22:16:46.417Z,1.50
2023-02-13T22:19:16.254Z,1.60
2023-02-13T22:21:44.801Z,1.60
2023-02-13T22:26:45.024Z,1.60
2023-02-13T22:29:15.842Z,1.70
2023-02-13T22:31:43.367Z,1.70
2023-02-13T22:34:13.699Z,1.70
2023-02-13T22:36:42.580Z,1.70
2023-02-13T22:39:11.848Z,1.70
2023-02-13T22:41:39.522Z,1.70
2023-02-13T22:46:35.086Z,1.80
2023-02-13T22:49:02.623Z,1.80
2023-02-13T22:51:35.049Z,1.70
2023-02-13T22:54:03.641Z,1.70
2023-02-13T22:56:32.089Z,1.70
2023-02-13T22:58:59.978Z,1.80
2023-02-13T23:01:29.172Z,1.80
2023-02-13T23:03:57.035Z,1.80
2023-02-13T23:06:25.263Z,1.70
2023-02-13T23:08:53.538Z,1.70
2023-02-13T23:11:44.687Z,1.80
2023-02-13T23:21:56.816Z,1.70
2023-02-13T23:26:51.648Z,1.60
2023-02-13T23:29:18.671Z,1.60
2023-02-13T23:34:13.411Z,1.70
2023-02-13T23:44:02.807Z,1.60
2023-02-13T23:46:29.942Z,1.60
2023-02-13T23:48:57.365Z,1.60
2023-02-13T23:51:25.548Z,1.60
2023-02-13T23:56:25.304Z,1.50
